Time;durP1;ratioP1;P1;durP2;ratioP2;P2;SDS_P1;SDS_P2;PMS_P1;PMS_P2;Temp;Humidity;BMP_temperature;BMP_pressure;BME280_temperature;BME280_humidity;BME280_pressure;Samples;Min_cycle;Max_cycle;Signal;HPM_P1;HPM_P2
2022/12/25 00:05:11;;;;;;;;;;;;;;;4.44;100.00;99498.52;428006;1275;141182;-64
2022/12/25 00:15:17;;;;;;;34.40;21.10;;;;;;;4.29;100.00;99514.52;435980;1281;128483;-63
2022/12/25 00:25:23;;;;;;;30.50;20.20;;;;;;;4.26;100.00;99527.64;436396;1274;142715;-64
2022/12/25 00:35:29;;;;;;;27.10;20.60;;;;;;;4.20;100.00;99550.02;436427;1281;141787;-64
2022/12/25 00:45:36;;;;;;;25.30;17.70;;;;;;;4.17;100.00;99564.70;428661;1275;141999;-64
2022/12/25 00:55:42;;;;;;;26.30;19.20;;;;;;;4.19;100.00;99573.63;436263;1274;143047;-64
2022/12/25 01:05:56;;;;;;;24.90;18.40;;;;;;;4.20;100.00;99584.19;436124;1281;143930;-64
2022/12/25 01:16:07;;;;;;;23.50;17.50;;;;;;;4.29;100.00;99592.34;435240;1277;161046;-64
2022/12/25 01:26:15;;;;;;;20.60;15.20;;;;;;;4.33;100.00;99584.04;427091;1275;142233;-63
2022/12/25 01:36:22;;;;;;;20.40;14.50;;;;;;;4.37;100.00;99589.44;418633;1277;143328;-63
2022/12/25 01:46:28;;;;;;;21.70;16.00;;;;;;;4.41;100.00;99595.55;419650;1274;143083;-63
2022/12/25 01:56:37;;;;;;;20.50;14.40;;;;;;;4.40;100.00;99597.13;419076;1275;141461;-63
2022/12/25 02:06:43;;;;;;;20.60;14.20;;;;;;;4.42;100.00;99595.48;435508;1275;141687;-64
2022/12/25 02:16:56;;;;;;;17.80;12.40;;;;;;;4.47;100.00;99598.26;436113;1282;142074;-63
2022/12/25 02:27:14;;;;;;;22.80;13.90;;;;;;;4.51;100.00;99606.77;435757;1282;142550;-64
2022/12/25 02:37:24;;;;;;;19.30;14.00;;;;;;;4.53;100.00;99612.75;432532;1274;141979;-63
2022/12/25 03:08:39;;;;;;;23.20;15.60;;;;;;;4.67;100.00;99630.24;426186;1275;142169;-63
2022/12/25 03:18:45;;;;;;;23.50;15.40;;;;;;;4.66;100.00;99637.05;420965;1275;141799;-63
2022/12/25 03:28:51;;;;;;;24.10;15.90;;;;;;;4.69;100.00;99649.44;423132;1275;142417;-63
2022/12/25 04:41:46;;;;;;;28.80;17.80;;;;;;;4.64;100.00;99708.39;419464;1274;142246;-63
2022/12/25 04:51:52;;;;;;;25.00;15.70;;;;;;;4.67;100.00;99710.70;424932;1278;142955;-63
2022/12/25 05:01:58;;;;;;;19.30;13.10;;;;;;;4.64;100.00;99724.34;422803;1281;141830;-64
2022/12/25 05:12:05;;;;;;;22.10;14.60;;;;;;;4.60;100.00;99728.98;421865;1281;141639;-64
2022/12/25 05:22:11;;;;;;;19.00;11.70;;;;;;;4.58;100.00;99728.54;420285;1279;142811;-64
2022/12/25 05:32:17;;;;;;;20.60;12.40;;;;;;;4.53;100.00;99744.86;419468;1275;141374;-63
2022/12/25 05:42:23;;;;;;;16.70;11.20;;;;;;;4.42;100.00;99742.48;425605;1281;144753;-64
2022/12/25 05:52:32;;;;;;;14.90;9.70;;;;;;;4.39;100.00;99748.29;427370;1275;142663;-64
2022/12/25 06:02:38;;;;;;;20.10;9.80;;;;;;;4.32;100.00;99760.69;424951;1281;141559;-68
2022/12/25 06:12:44;;;;;;;18.20;11.20;;;;;;;4.36;100.00;99766.26;422906;1275;144285;-64
2022/12/25 06:22:50;;;;;;;21.00;13.60;;;;;;;4.44;100.00;99768.93;420494;1281;142421;-64
2022/12/25 06:32:58;;;;;;;21.00;12.90;;;;;;;4.47;100.00;99795.70;420904;1275;141725;-64
2022/12/25 06:43:04;;;;;;;21.70;12.80;;;;;;;4.47;100.00;99811.64;419139;1279;211289;-62
2022/12/25 06:53:10;;;;;;;35.90;16.70;;;;;;;4.44;100.00;99828.01;425752;1275;156057;-63
2022/12/25 07:03:20;;;;;;;22.60;14.30;;;;;;;4.44;100.00;99842.75;418837;1275;142495;-64
2022/12/25 07:13:26;;;;;;;23.70;14.30;;;;;;;4.46;100.00;99866.96;425941;1281;142593;-62
2022/12/25 07:23:33;;;;;;;18.10;13.60;;;;;;;4.50;100.00;99886.77;422411;1281;141796;-63
2022/12/25 07:33:38;;;;;;;24.50;15.20;;;;;;;4.51;100.00;99900.10;425570;1281;142136;-64
2022/12/25 07:43:45;;;;;;;18.40;12.70;;;;;;;4.53;100.00;99906.80;423967;1275;141332;-64
2022/12/25 07:53:51;;;;;;;19.30;13.10;;;;;;;4.63;100.00;99906.09;423593;1275;142307;-63
2022/12/25 08:03:59;;;;;;;23.90;12.80;;;;;;;4.70;100.00;99913.65;420690;1281;141662;-63
2022/12/25 08:14:07;;;;;;;20.10;14.80;;;;;;;4.78;100.00;99924.66;420850;1281;142908;-63
2022/12/25 08:24:13;;;;;;;24.70;14.60;;;;;;;4.92;100.00;99926.79;420690;1278;141740;-63
2022/12/25 08:34:19;;;;;;;20.10;13.00;;;;;;;4.97;100.00;99937.90;420903;1275;142322;-63
2022/12/25 08:44:25;;;;;;;20.70;13.00;;;;;;;5.04;100.00;99943.73;422468;1281;141981;-63
2022/12/25 08:54:33;;;;;;;23.80;14.30;;;;;;;5.04;100.00;99949.96;419298;1281;142779;-61
2022/12/25 09:04:39;;;;;;;20.80;14.90;;;;;;;5.24;100.00;99960.73;423086;1281;145625;-63
2022/12/25 09:14:45;;;;;;;22.30;14.80;;;;;;;5.48;100.00;99970.77;419988;1280;141701;-65
2022/12/25 09:24:51;;;;;;;20.70;14.30;;;;;;;5.64;100.00;99971.10;420622;1281;141684;-63
2022/12/25 09:34:57;;;;;;;23.20;15.00;;;;;;;5.77;100.00;99968.66;421095;1281;142650;-64
2022/12/25 09:45:11;;;;;;;28.00;16.60;;;;;;;5.87;100.00;99975.76;419208;1280;141441;-65
2022/12/25 09:55:20;;;;;;;28.70;18.60;;;;;;;5.99;100.00;99971.16;436245;1281;141476;-65
2022/12/25 10:05:55;;;;;;;26.80;16.20;;;;;;;6.18;100.00;99978.11;436320;1279;142873;-65
2022/12/25 10:16:14;;;;;;;27.50;19.10;;;;;;;6.33;100.00;99979.25;434219;1278;143028;-66
2022/12/25 10:26:24;;;;;;;30.90;16.80;;;;;;;6.51;100.00;99972.09;426559;1281;142420;-65
2022/12/25 10:36:31;;;;;;;23.60;18.10;;;;;;;6.55;100.00;99973.33;435520;1286;145855;-66
2022/12/25 10:46:37;;;;;;;29.10;19.10;;;;;;;6.64;100.00;99956.74;436490;1286;143205;-66
2022/12/25 10:56:54;;;;;;;28.20;19.80;;;;;;;6.82;100.00;99948.88;436482;1283;141951;-66
2022/12/25 11:07:05;;;;;;;28.10;16.50;;;;;;;7.03;100.00;99962.42;435409;1280;143141;-66
2022/12/25 11:17:17;;;;;;;22.80;14.70;;;;;;;7.09;100.00;99951.20;436157;1282;142413;-66
2022/12/25 11:27:27;;;;;;;16.30;13.70;;;;;;;7.05;100.00;99949.48;419256;1280;143559;-65
2022/12/25 11:37:38;;;;;;;24.90;14.30;;;;;;;7.11;100.00;99935.10;435977;1281;142323;-66
2022/12/25 11:47:48;;;;;;;20.00;13.60;;;;;;;7.04;100.00;99931.94;435928;1282;142354;-66
2022/12/25 11:57:59;;;;;;;16.90;9.70;;;;;;;7.05;100.00;99925.45;435339;1283;141922;-66
2022/12/25 12:08:09;;;;;;;14.40;11.20;;;;;;;7.28;100.00;99930.71;436120;1281;152607;-65
2022/12/25 12:18:22;;;;;;;17.40;12.70;;;;;;;7.46;100.00;99938.08;435365;1282;142030;-66
2022/12/25 12:28:37;;;;;;;18.10;13.20;;;;;;;7.27;100.00;99950.23;435949;1282;142347;-66
2022/12/25 12:38:46;;;;;;;14.70;12.30;;;;;;;7.33;100.00;99951.36;433063;1281;145076;-66
2022/12/25 12:48:54;;;;;;;14.80;12.10;;;;;;;7.45;100.00;99935.17;435200;1281;142082;-66
2022/12/25 12:59:00;;;;;;;18.30;13.90;;;;;;;7.47;100.00;99936.81;436073;1280;141935;-65
2022/12/25 13:09:17;;;;;;;17.90;13.10;;;;;;;7.27;100.00;99941.04;433549;1280;142675;-64
2022/12/25 13:19:25;;;;;;;17.70;12.70;;;;;;;6.96;100.00;99954.56;433603;1281;179361;-64
2022/12/25 13:29:33;;;;;;;14.00;10.00;;;;;;;6.79;100.00;99956.13;436441;1281;143106;-64
2022/12/25 13:39:47;;;;;;;18.50;13.30;;;;;;;6.64;100.00;99954.48;431440;1275;142602;-63
2022/12/25 13:49:55;;;;;;;13.70;11.80;;;;;;;6.47;100.00;99970.85;436469;1274;144678;-64
2022/12/25 14:00:02;;;;;;;19.70;14.00;;;;;;;6.36;100.00;99965.23;429646;1274;141781;-63
2022/12/25 14:10:13;;;;;;;25.50;18.40;;;;;;;6.23;100.00;99955.98;435882;1277;210295;-65
2022/12/25 14:20:32;;;;;;;27.20;17.60;;;;;;;6.08;100.00;99946.84;436540;1280;142431;-64
2022/12/25 14:30:43;;;;;;;26.40;18.30;;;;;;;5.92;100.00;99958.58;431854;1281;142885;-64
2022/12/25 14:41:00;;;;;;;23.50;17.20;;;;;;;5.77;100.00;99980.85;419535;1275;142535;-64
2022/12/25 14:51:15;;;;;;;29.70;21.50;;;;;;;5.60;100.00;99985.29;427945;1281;142317;-64
2022/12/25 15:01:27;;;;;;;28.30;18.80;;;;;;;5.46;100.00;99966.54;436428;1274;142967;-64
2022/12/25 15:11:33;;;;;;;20.10;14.50;;;;;;;5.36;100.00;99953.50;427661;1281;145477;-63
2022/12/25 15:21:39;;;;;;;22.90;15.70;;;;;;;5.30;100.00;99964.31;427362;1274;142356;-64
2022/12/25 15:31:45;;;;;;;26.70;17.40;;;;;;;5.21;100.00;99985.27;431512;1281;141684;-63
2022/12/25 15:52:17;;;;;;;21.10;15.50;;;;;;;5.13;100.00;99987.30;436083;1281;208275;-63
2022/12/25 16:02:23;;;;;;;28.60;15.50;;;;;;;5.08;100.00;99973.09;436329;1288;142016;-63
2022/12/25 16:12:29;;;;;;;28.30;17.80;;;;;;;5.01;100.00;99970.90;435439;1278;142046;-64
2022/12/25 16:22:38;;;;;;;24.90;16.00;;;;;;;4.93;100.00;99964.59;436232;1282;141978;-63
2022/12/25 16:32:48;;;;;;;22.10;15.60;;;;;;;4.68;100.00;99944.61;436274;1275;142045;-63
2022/12/25 16:42:54;;;;;;;24.50;15.00;;;;;;;4.45;100.00;99925.09;435354;1282;141884;-64
2022/12/25 16:53:00;;;;;;;21.20;14.50;;;;;;;4.25;100.00;99927.81;436205;1274;142009;-63
2022/12/25 17:03:06;;;;;;;23.80;16.70;;;;;;;4.12;100.00;99900.49;435702;1274;142045;-63
2022/12/25 17:13:12;;;;;;;21.40;16.20;;;;;;;4.15;100.00;99920.85;436551;1282;142063;-64
2022/12/25 17:23:18;;;;;;;30.70;17.70;;;;;;;4.29;100.00;99934.95;436424;1281;142277;-64
2022/12/25 17:33:24;;;;;;;25.20;17.60;;;;;;;4.34;100.00;99916.77;435610;1282;142334;-63
2022/12/25 17:43:30;;;;;;;28.50;21.20;;;;;;;4.27;100.00;99916.15;436462;1281;142109;-63
2022/12/25 17:53:37;;;;;;;32.30;18.90;;;;;;;4.18;100.00;99921.59;436328;1281;142471;-64
2022/12/25 18:03:44;;;;;;;34.20;21.70;;;;;;;4.10;100.00;99898.30;435511;1276;143049;-63
2022/12/25 18:13:52;;;;;;;29.70;20.00;;;;;;;4.03;100.00;99914.11;432578;1274;142537;-63
2022/12/25 18:23:58;;;;;;;32.40;19.00;;;;;;;3.96;100.00;99909.85;436557;1282;141220;-63
2022/12/25 18:34:04;;;;;;;30.50;20.80;;;;;;;3.86;100.00;99886.93;434735;1274;213659;-64
2022/12/25 18:44:10;;;;;;;31.40;19.90;;;;;;;3.75;100.00;99867.36;432958;1274;143393;-63
2022/12/25 18:54:16;;;;;;;28.20;18.90;;;;;;;3.68;100.00;99868.95;435784;1274;144387;-64
2022/12/25 19:04:22;;;;;;;29.50;20.30;;;;;;;3.64;100.00;99861.81;436465;1280;142808;-63
2022/12/25 19:14:28;;;;;;;32.00;21.10;;;;;;;3.59;100.00;99833.73;436476;1278;141942;-63
2022/12/25 19:24:52;;;;;;;28.90;18.90;;;;;;;3.57;100.00;99824.80;435565;1277;142720;-64
2022/12/25 19:35:03;;;;;;;25.50;18.70;;;;;;;3.58;100.00;99815.07;436537;1274;143070;-64
2022/12/25 19:45:10;;;;;;;23.60;17.50;;;;;;;3.60;100.00;99791.98;435693;1281;142232;-64
2022/12/25 19:55:17;;;;;;;;;;;;;;;3.60;100.00;99794.58;436417;1274;141395;-64
2022/12/25 20:05:22;;;;;;;;;;;;;;;3.58;100.00;99787.38;436801;1281;128379;-64
2022/12/25 20:15:28;;;;;;;24.30;17.10;;;;;;;3.55;100.00;99781.95;424236;1274;129545;-64
2022/12/25 20:25:34;;;;;;;28.80;17.40;;;;;;;3.48;100.00;99786.30;420024;1275;142500;-63
2022/12/25 20:35:46;;;;;;;26.40;16.80;;;;;;;3.40;100.00;99783.98;428859;1281;142520;-64
2022/12/25 20:45:53;;;;;;;25.60;19.20;;;;;;;3.35;100.00;99768.20;435528;1281;141861;-64
2022/12/25 20:56:00;;;;;;;26.40;19.10;;;;;;;3.31;100.00;99745.15;435980;1275;141951;-64
2022/12/25 21:06:07;;;;;;;23.50;17.70;;;;;;;3.28;100.00;99742.99;435379;1282;142846;-64
2022/12/25 21:16:14;;;;;;;27.50;18.60;;;;;;;3.24;100.00;99726.35;436150;1274;142223;-65
2022/12/25 21:26:23;;;;;;;23.90;18.00;;;;;;;3.22;100.00;99700.78;436198;1277;143541;-64
2022/12/25 21:36:34;;;;;;;22.60;17.90;;;;;;;3.22;100.00;99695.75;435430;1281;161260;-64
2022/12/25 21:46:40;;;;;;;20.00;15.50;;;;;;;3.25;100.00;99681.50;436160;1281;141961;-65
2022/12/25 21:56:48;;;;;;;30.10;18.30;;;;;;;3.26;100.00;99662.23;420993;1274;141298;-63
2022/12/25 22:27:42;;;;;;;25.10;17.60;;;;;;;3.32;100.00;99611.18;420651;1281;142834;-63
2022/12/25 22:37:48;;;;;;;21.90;15.50;;;;;;;3.33;100.00;99592.28;436302;1282;143170;-65
2022/12/25 22:47:54;;;;;;;27.30;17.70;;;;;;;3.34;100.00;99579.95;435834;1281;142077;-65
2022/12/25 22:58:00;;;;;;;25.20;17.40;;;;;;;3.40;100.00;99580.13;434188;1282;141640;-64
2022/12/25 23:08:06;;;;;;;29.20;18.60;;;;;;;3.49;100.00;99577.55;433080;1280;141805;-64
2022/12/25 23:39:00;;;;;;;25.60;17.20;;;;;;;3.59;100.00;99531.86;428309;1282;141892;-64
2022/12/25 23:49:14;;;;;;;24.10;17.30;;;;;;;3.61;100.00;99531.58;423603;1275;201948;-64
2022/12/25 23:59:20;;;;;;;24.70;18.80;;;;;;;3.65;100.00;99543.25;436195;1281;141628;-64
